createdAt,value
2022-12-11T00:01:52.007Z,98092.55
2022-12-11T00:04:21.051Z,98088.16
2022-12-11T00:06:50.965Z,98083.57
2022-12-11T00:09:21.339Z,98064.67
2022-12-11T00:11:50.175Z,98078.02
2022-12-11T00:14:19.214Z,98074.96
2022-12-11T00:16:49.956Z,98071.91
2022-12-11T00:19:18.537Z,98060.23
2022-12-11T00:21:47.366Z,98055.23
2022-12-11T00:24:16.101Z,98051.90
2022-12-11T00:26:45.668Z,98051.14
2022-12-11T00:29:14.979Z,98039.88
2022-12-11T00:31:43.606Z,98040.76
2022-12-11T00:34:12.346Z,98037.73
2022-12-11T00:36:41.031Z,98037.30
2022-12-11T00:39:09.549Z,98028.48
2022-12-11T00:41:38.193Z,98032.20
2022-12-11T00:44:06.876Z,98026.19
2022-12-11T00:46:35.480Z,98015.05
2022-12-11T00:49:04.555Z,98011.13
2022-12-11T00:51:33.241Z,98014.86
2022-12-11T00:54:01.830Z,98021.61
2022-12-11T00:56:30.335Z,98019.35
2022-12-11T00:58:58.790Z,98009.84
2022-12-11T01:01:27.486Z,98005.84
2022-12-11T01:03:56.082Z,98005.19
2022-12-11T01:06:27.437Z,97998.71
2022-12-11T01:09:16.370Z,97990.17
2022-12-11T01:11:45.049Z,97989.24
2022-12-11T01:14:14.509Z,97982.71
2022-12-11T01:16:43.179Z,97983.40
2022-12-11T01:19:12.231Z,97975.86
2022-12-11T01:21:41.438Z,97981.70
2022-12-11T01:24:10.013Z,97979.33
2022-12-11T01:26:38.697Z,97968.14
2022-12-11T01:29:07.281Z,97960.52
2022-12-11T01:31:35.966Z,97954.70
2022-12-11T01:34:04.434Z,97951.02
2022-12-11T01:36:33.133Z,97944.67
2022-12-11T01:39:01.921Z,97945.40
2022-12-11T01:41:30.606Z,97941.88
2022-12-11T01:44:28.066Z,97925.76
2022-12-11T01:46:56.767Z,97917.85
2022-12-11T01:49:28.406Z,97922.91
2022-12-11T01:52:22.078Z,97925.10
2022-12-11T01:54:51.689Z,97923.02
2022-12-11T01:57:20.100Z,97910.96
2022-12-11T01:59:48.953Z,97907.16
2022-12-11T02:02:29.669Z,97905.07
2022-12-11T02:04:58.634Z,97908.63
2022-12-11T02:07:37.950Z,97902.19
2022-12-11T02:10:09.710Z,97910.96
2022-12-11T02:13:12.964Z,97911.63
2022-12-11T02:15:57.083Z,97897.46
2022-12-11T02:18:52.359Z,97904.08
2022-12-11T02:21:28.963Z,97901.80
2022-12-11T02:24:42.681Z,97896.13
2022-12-11T02:27:41.811Z,97900.55
2022-12-11T02:30:14.788Z,97899.03
2022-12-11T02:32:55.326Z,97898.09
2022-12-11T02:35:34.712Z,97892.21
2022-12-11T02:38:10.335Z,97884.08
2022-12-11T02:40:42.586Z,97884.88
2022-12-11T02:43:16.430Z,97880.55
2022-12-11T02:45:47.392Z,97877.16
2022-12-11T02:48:18.597Z,97870.48
2022-12-11T02:50:50.748Z,97871.13
2022-12-11T02:53:25.901Z,97872.16
2022-12-11T02:56:10.636Z,97880.82
2022-12-11T02:58:52.717Z,97875.61
2022-12-11T03:01:27.114Z,97878.60
2022-12-11T03:03:58.504Z,97880.64
2022-12-11T03:06:37.964Z,97874.20
2022-12-11T03:09:07.540Z,97871.05
2022-12-11T03:11:36.131Z,97869.02
2022-12-11T03:14:05.499Z,97862.25
2022-12-11T03:16:42.025Z,97859.98
2022-12-11T03:19:35.733Z,97854.69
2022-12-11T03:22:23.102Z,97849.29
2022-12-11T03:25:01.507Z,97846.05
2022-12-11T03:27:47.110Z,97828.23
2022-12-11T03:30:20.318Z,97836.20
2022-12-11T03:33:11.095Z,97833.86
2022-12-11T03:35:44.357Z,97833.98
2022-12-11T03:38:38.123Z,97831.33
2022-12-11T03:41:09.109Z,97833.88
2022-12-11T03:43:39.037Z,97827.25
2022-12-11T03:46:09.577Z,97819.89
2022-12-11T03:48:42.187Z,97805.70
2022-12-11T03:51:10.720Z,97790.98
2022-12-11T03:53:40.215Z,97782.05
2022-12-11T03:56:12.677Z,97768.06
2022-12-11T03:58:41.492Z,97766.51
2022-12-11T04:01:11.995Z,97760.67
2022-12-11T04:03:40.879Z,97765.67
2022-12-11T04:06:09.465Z,97761.77
2022-12-11T04:08:38.040Z,97763.37
2022-12-11T04:11:25.672Z,97764.33
2022-12-11T04:14:12.793Z,97759.68
2022-12-11T04:16:41.473Z,97748.05
2022-12-11T04:19:30.845Z,97739.73
2022-12-11T04:22:18.224Z,97737.74
2022-12-11T04:24:51.848Z,97726.27
2022-12-11T04:27:38.783Z,97725.48
2022-12-11T04:30:13.562Z,97715.49
2022-12-11T04:32:42.196Z,97709.64
2022-12-11T04:35:12.215Z,97699.84
2022-12-11T04:37:41.694Z,97698.23
2022-12-11T04:40:14.549Z,97698.27
2022-12-11T04:42:43.183Z,97691.33
2022-12-11T04:45:13.104Z,97685.25
2022-12-11T04:47:42.864Z,97676.29
2022-12-11T04:50:14.505Z,97675.70
2022-12-11T04:52:43.396Z,97668.20
2022-12-11T04:55:13.061Z,97664.27
2022-12-11T04:57:42.058Z,97662.73
2022-12-11T05:00:13.310Z,97668.32
2022-12-11T05:02:43.169Z,97662.61
2022-12-11T05:05:12.527Z,97657.70
2022-12-11T05:07:41.507Z,97662.13
2022-12-11T05:10:10.637Z,97659.44
2022-12-11T05:12:39.165Z,97658.99
2022-12-11T05:15:09.167Z,97657.73
2022-12-11T05:17:38.095Z,97644.50
2022-12-11T05:20:08.329Z,97653.16
2022-12-11T05:22:38.844Z,97654.05
2022-12-11T05:25:08.722Z,97658.58
2022-12-11T05:27:37.718Z,97656.67
2022-12-11T05:30:07.533Z,97657.73
2022-12-11T05:32:36.488Z,97654.39
2022-12-11T05:35:05.826Z,97651.55
2022-12-11T05:37:34.953Z,97642.83
2022-12-11T05:40:06.537Z,97634.19
2022-12-11T05:42:35.610Z,97628.91
2022-12-11T05:45:05.257Z,97623.52
2022-12-11T05:47:33.895Z,97628.16
2022-12-11T05:50:02.576Z,97623.10
2022-12-11T05:52:32.354Z,97617.38
2022-12-11T05:55:00.975Z,97621.91
2022-12-11T05:57:29.659Z,97628.84
2022-12-11T05:59:58.240Z,97628.73
2022-12-11T06:02:27.169Z,97618.98
2022-12-11T06:04:55.741Z,97616.59
2022-12-11T06:07:25.070Z,97615.15
2022-12-11T06:09:53.698Z,97611.83
2022-12-11T06:12:22.486Z,97609.15
2022-12-11T06:14:51.172Z,97606.58
2022-12-11T06:17:19.962Z,97601.19
2022-12-11T06:19:48.576Z,97598.10
2022-12-11T06:22:17.337Z,97593.48
2022-12-11T06:24:46.261Z,97589.98
2022-12-11T06:27:15.251Z,97583.17
2022-12-11T06:29:43.696Z,97582.57
2022-12-11T06:32:12.518Z,97574.61
2022-12-11T06:34:41.171Z,97574.39
2022-12-11T06:37:09.693Z,97572.83
2022-12-11T06:39:38.335Z,97565.45
2022-12-11T06:42:06.917Z,97571.40
2022-12-11T06:44:35.609Z,97556.09
2022-12-11T06:47:04.493Z,97551.80
2022-12-11T06:49:33.690Z,97544.40
2022-12-11T06:52:02.378Z,97541.83
2022-12-11T06:54:31.062Z,97544.90
2022-12-11T06:57:00.071Z,97546.40
2022-12-11T06:59:28.625Z,97545.75
2022-12-11T07:01:57.291Z,97545.75
2022-12-11T07:04:27.785Z,97541.67
2022-12-11T07:06:56.548Z,97533.80
2022-12-11T07:09:25.331Z,97521.75
2022-12-11T07:11:54.014Z,97514.02
2022-12-11T07:14:22.638Z,97509.38
2022-12-11T07:16:51.424Z,97499.27
2022-12-11T07:19:19.862Z,97489.95
2022-12-11T07:21:48.581Z,97481.00
2022-12-11T07:24:17.337Z,97483.63
2022-12-11T07:26:46.519Z,97478.65
2022-12-11T07:29:15.219Z,97485.33
2022-12-11T07:31:43.736Z,97489.46
2022-12-11T07:34:14.371Z,97490.81
2022-12-11T07:36:43.850Z,97497.13
2022-12-11T07:39:13.235Z,97496.48
2022-12-11T07:41:41.922Z,97501.84
2022-12-11T07:44:13.175Z,97488.70
2022-12-11T07:46:41.877Z,97494.77
2022-12-11T07:49:10.477Z,97489.40
2022-12-11T07:51:39.343Z,97491.20
2022-12-11T07:54:15.194Z,97488.20
2022-12-11T07:56:51.137Z,97490.92
2022-12-11T07:59:21.665Z,97483.89
2022-12-11T08:01:50.847Z,97478.52
2022-12-11T08:04:19.483Z,97479.75
2022-12-11T08:06:48.089Z,97477.11
2022-12-11T08:09:21.150Z,97478.05
2022-12-11T08:11:51.692Z,97476.59
2022-12-11T08:14:21.160Z,97480.98
2022-12-11T08:16:50.142Z,97473.30
2022-12-11T08:19:18.708Z,97463.52
2022-12-11T08:21:47.226Z,97457.91
2022-12-11T08:24:20.381Z,97461.83
2022-12-11T08:26:49.305Z,97457.67
2022-12-11T08:29:18.140Z,97458.14
2022-12-11T08:31:46.818Z,97450.23
2022-12-11T08:34:15.246Z,97445.39
2022-12-11T08:36:44.484Z,97442.79
2022-12-11T08:39:13.035Z,97434.98
2022-12-11T08:41:42.115Z,97423.40
2022-12-11T08:44:16.564Z,97424.23
2022-12-11T08:46:46.389Z,97415.93
2022-12-11T08:49:15.044Z,97412.90
2022-12-11T08:51:43.605Z,97410.09
2022-12-11T08:54:12.308Z,97396.20
2022-12-11T08:56:41.110Z,97388.19
2022-12-11T08:59:09.680Z,97380.05
2022-12-11T09:01:38.209Z,97373.30
2022-12-11T09:04:07.255Z,97366.77
2022-12-11T09:06:35.795Z,97372.92
2022-12-11T09:09:05.254Z,97369.66
2022-12-11T09:11:37.973Z,97368.61
2022-12-11T09:14:08.124Z,97375.58
2022-12-11T09:16:40.876Z,97367.75
2022-12-11T09:19:14.457Z,97374.16
2022-12-11T09:21:44.484Z,97375.91
2022-12-11T09:24:13.671Z,97364.86
2022-12-11T09:26:42.346Z,97359.34
2022-12-11T09:29:11.797Z,97360.55
2022-12-11T09:31:40.930Z,97358.64
2022-12-11T09:34:13.395Z,97354.64
2022-12-11T09:36:44.423Z,97347.92
2022-12-11T09:39:14.928Z,97344.52
2022-12-11T09:42:05.315Z,97346.30
2022-12-11T09:44:56.365Z,97351.23
2022-12-11T09:47:51.886Z,97354.98
2022-12-11T09:50:28.726Z,97357.23
2022-12-11T09:53:36.956Z,97358.40
2022-12-11T09:56:36.505Z,97353.52
2022-12-11T09:59:31.999Z,97350.02
2022-12-11T10:02:43.179Z,97356.77
2022-12-11T10:05:26.130Z,97359.21
2022-12-11T10:08:11.802Z,97361.00
2022-12-11T10:10:52.989Z,97360.64
2022-12-11T10:14:03.161Z,97346.38
2022-12-11T10:16:47.401Z,97329.02
2022-12-11T10:19:28.657Z,97331.45
2022-12-11T10:21:58.302Z,97326.33
2022-12-11T10:27:39.118Z,97303.27
2022-12-11T10:30:14.247Z,97301.64
2022-12-11T10:33:14.608Z,97285.36
2022-12-11T10:35:56.228Z,97276.88
2022-12-11T10:38:38.956Z,97274.27
2022-12-11T10:41:24.909Z,97273.22
2022-12-11T10:43:54.212Z,97266.91
2022-12-11T10:46:26.604Z,97275.63
2022-12-11T10:48:59.117Z,97275.45
2022-12-11T10:51:36.535Z,97269.25
2022-12-11T10:54:17.635Z,97265.23
2022-12-11T10:56:49.055Z,97268.61
2022-12-11T10:59:46.119Z,97271.63
2022-12-11T11:02:41.704Z,97285.05
2022-12-11T11:05:36.838Z,97301.79
2022-12-11T11:08:19.489Z,97300.04
2022-12-11T11:11:00.706Z,97294.80
2022-12-11T11:13:32.079Z,97297.73
2022-12-11T11:16:06.010Z,97295.52
2022-12-11T11:18:35.125Z,97295.10
2022-12-11T11:21:04.086Z,97297.48
2022-12-11T11:23:35.385Z,97296.49
2022-12-11T11:26:08.513Z,97298.16
2022-12-11T11:28:42.412Z,97310.65
2022-12-11T11:31:14.830Z,97321.73
2022-12-11T11:34:15.765Z,97322.52
2022-12-11T11:36:44.543Z,97336.52
2022-12-11T11:39:34.438Z,97335.92
2022-12-11T11:42:30.505Z,97336.62
2022-12-11T11:45:10.145Z,97332.81
2022-12-11T11:47:48.797Z,97327.02
2022-12-11T11:50:24.981Z,97336.52
2022-12-11T11:53:00.609Z,97351.07
2022-12-11T11:55:58.199Z,97353.86
2022-12-11T11:58:37.478Z,97361.07
2022-12-11T12:01:15.337Z,97364.98
2022-12-11T12:03:44.290Z,97367.66
2022-12-11T12:06:39.232Z,97374.27
2022-12-11T12:09:24.631Z,97372.96
2022-12-11T12:12:13.870Z,97388.44
2022-12-11T12:15:19.547Z,97400.63
2022-12-11T12:18:11.353Z,97389.35
2022-12-11T12:20:52.426Z,97388.15
2022-12-11T12:23:57.737Z,97396.61
2022-12-11T12:26:34.107Z,97404.23
2022-12-11T12:29:32.383Z,97402.09
2022-12-11T12:32:10.387Z,97412.80
2022-12-11T12:35:20.941Z,97412.50
2022-12-11T12:38:05.106Z,97419.11
2022-12-11T12:41:25.497Z,97412.00
2022-12-11T12:44:19.197Z,97413.45
2022-12-11T12:46:56.629Z,97413.10
2022-12-11T12:49:47.189Z,97417.15
2022-12-11T12:52:23.219Z,97426.47
2022-12-11T12:55:16.325Z,97443.66
2022-12-11T12:57:48.655Z,97452.71
2022-12-11T13:00:34.534Z,97440.91
2022-12-11T13:03:23.594Z,97452.25
2022-12-11T13:06:05.534Z,97452.77
2022-12-11T13:08:52.127Z,97452.07
2022-12-11T13:11:31.549Z,97449.77
2022-12-11T13:14:07.625Z,97447.10
2022-12-11T13:16:49.297Z,97452.69
2022-12-11T13:19:23.913Z,97452.74
2022-12-11T13:22:24.615Z,97452.46
2022-12-11T13:24:53.057Z,97455.37
2022-12-11T13:27:30.648Z,97455.01
2022-12-11T13:30:26.905Z,97459.63
2022-12-11T13:33:17.813Z,97461.89
2022-12-11T13:35:46.587Z,97470.61
2022-12-11T13:38:22.754Z,97478.89
2022-12-11T13:40:57.231Z,97488.77
2022-12-11T13:43:33.509Z,97489.90
2022-12-11T13:46:09.066Z,97495.44
2022-12-11T13:48:46.542Z,97498.70
2022-12-11T13:51:20.061Z,97501.39
2022-12-11T13:53:49.230Z,97489.33
2022-12-11T13:56:22.159Z,97504.66
2022-12-11T13:58:50.999Z,97508.16
2022-12-11T14:01:32.561Z,97508.80
2022-12-11T14:04:20.225Z,97512.34
2022-12-11T14:06:49.724Z,97515.30
2022-12-11T14:09:22.912Z,97521.26
2022-12-11T14:11:56.826Z,97539.63
2022-12-11T14:14:40.451Z,97551.46
2022-12-11T14:17:23.550Z,97548.52
2022-12-11T14:19:53.257Z,97555.14
2022-12-11T14:22:25.770Z,97558.44
2022-12-11T14:24:57.767Z,97554.57
2022-12-11T14:27:29.728Z,97569.64
2022-12-11T14:29:58.483Z,97568.52
2022-12-11T14:32:38.736Z,97579.72
2022-12-11T14:35:28.549Z,97597.97
2022-12-11T14:38:00.916Z,97599.90
2022-12-11T14:40:38.686Z,97606.69
2022-12-11T14:43:20.277Z,97613.48
2022-12-11T14:45:54.854Z,97608.15
2022-12-11T14:48:33.319Z,97606.02
2022-12-11T14:51:05.587Z,97608.36
2022-12-11T14:53:45.226Z,97616.69
2022-12-11T14:56:23.568Z,97617.53
2022-12-11T14:59:28.537Z,97638.27
2022-12-11T15:02:22.232Z,97651.90
2022-12-11T15:05:03.569Z,97655.61
2022-12-11T15:07:32.222Z,97662.60
2022-12-11T15:10:00.649Z,97664.23
2022-12-11T15:12:29.377Z,97670.94
2022-12-11T15:15:04.517Z,97678.58
2022-12-11T15:17:37.636Z,97680.90
2022-12-11T15:20:12.002Z,97682.67
2022-12-11T15:22:44.849Z,97680.88
2022-12-11T15:25:26.975Z,97689.09
2022-12-11T15:27:59.284Z,97693.62
2022-12-11T15:30:34.991Z,97705.04
2022-12-11T15:33:09.619Z,97707.58
2022-12-11T15:35:40.901Z,97710.30
2022-12-11T15:38:28.810Z,97710.83
2022-12-11T15:40:58.291Z,97714.77
2022-12-11T15:43:28.325Z,97719.37
2022-12-11T15:45:56.828Z,97725.86
2022-12-11T15:48:25.318Z,97732.36
2022-12-11T15:50:54.413Z,97741.17
2022-12-11T15:53:23.099Z,97746.25
2022-12-11T15:55:53.017Z,97750.06
2022-12-11T15:58:24.672Z,97758.74
2022-12-11T16:00:54.386Z,97762.40
2022-12-11T16:03:25.149Z,97757.25
2022-12-11T16:05:54.009Z,97763.33
2022-12-11T16:08:24.669Z,97769.98
2022-12-11T16:10:55.215Z,97772.09
2022-12-11T16:13:23.949Z,97781.51
2022-12-11T16:15:55.325Z,97788.64
2022-12-11T16:18:24.102Z,97797.00
2022-12-11T16:20:53.334Z,97799.53
2022-12-11T16:23:22.390Z,97813.27
2022-12-11T16:25:51.073Z,97824.38
2022-12-11T16:28:21.401Z,97829.63
2022-12-11T16:30:50.124Z,97838.23
2022-12-11T16:33:18.963Z,97839.58
2022-12-11T16:35:47.756Z,97847.46
2022-12-11T16:38:16.469Z,97857.44
2022-12-11T16:40:45.946Z,97861.18
2022-12-11T16:43:14.527Z,97865.60
2022-12-11T16:45:43.521Z,97871.73
2022-12-11T16:48:12.305Z,97873.20
2022-12-11T16:50:41.098Z,97878.15
2022-12-11T16:53:10.094Z,97884.48
2022-12-11T16:55:39.937Z,97887.95
2022-12-11T16:58:08.583Z,97892.92
2022-12-11T17:00:37.311Z,97904.09
2022-12-11T17:03:06.366Z,97906.49
2022-12-11T17:05:35.469Z,97900.70
2022-12-11T17:08:04.225Z,97906.20
2022-12-11T17:10:34.636Z,97915.14
2022-12-11T17:13:03.284Z,97918.66
2022-12-11T17:15:31.973Z,97917.02
2022-12-11T17:18:00.633Z,97923.20
2022-12-11T17:20:29.422Z,97918.58
2022-12-11T17:22:58.294Z,97905.89
2022-12-11T17:25:26.937Z,97920.23
2022-12-11T17:27:56.747Z,97939.34
2022-12-11T17:30:25.386Z,97942.58
2022-12-11T17:32:53.970Z,97948.23
2022-12-11T17:35:23.680Z,97959.50
2022-12-11T17:37:52.262Z,97967.40
2022-12-11T17:40:22.802Z,97970.41
2022-12-11T17:42:51.606Z,97964.63
2022-12-11T17:45:20.197Z,97973.92
2022-12-11T17:47:49.059Z,97972.77
2022-12-11T17:50:17.670Z,97967.45
2022-12-11T17:52:46.219Z,97962.32
2022-12-11T17:55:15.225Z,97955.40
2022-12-11T17:57:44.206Z,97942.20
2022-12-11T18:00:14.375Z,97959.48
2022-12-11T18:02:42.840Z,97963.27
2022-12-11T18:05:12.432Z,97963.77
2022-12-11T18:07:41.301Z,97960.20
2022-12-11T18:10:10.193Z,97949.94
2022-12-11T18:12:38.775Z,97948.45
2022-12-11T18:15:08.649Z,97950.24
2022-12-11T18:17:37.273Z,97956.88
2022-12-11T18:20:06.602Z,97961.61
2022-12-11T18:22:35.163Z,97967.44
2022-12-11T18:25:10.014Z,97964.54
2022-12-11T18:27:39.430Z,97993.71
2022-12-11T18:30:09.200Z,98001.66
2022-12-11T18:32:37.783Z,98005.86
2022-12-11T18:35:07.254Z,98012.21
2022-12-11T18:37:36.902Z,98014.94
2022-12-11T18:40:06.241Z,98023.40
2022-12-11T18:42:35.298Z,98031.45
2022-12-11T18:45:05.315Z,98025.34
2022-12-11T18:47:34.205Z,98005.89
2022-12-11T18:50:07.627Z,97999.39
2022-12-11T18:52:37.008Z,97991.70
2022-12-11T18:55:06.639Z,97997.45
2022-12-11T18:57:34.999Z,98004.98
2022-12-11T19:00:07.714Z,98006.96
2022-12-11T19:02:36.388Z,98015.78
2022-12-11T19:05:05.905Z,98013.74
2022-12-11T19:07:35.355Z,98017.17
2022-12-11T19:10:05.521Z,98017.67
2022-12-11T19:12:34.784Z,98015.79
2022-12-11T19:15:04.083Z,97991.91
2022-12-11T19:17:32.693Z,97995.66
2022-12-11T19:20:18.833Z,98023.51
2022-12-11T19:22:50.201Z,98036.25
2022-12-11T19:25:19.459Z,98037.11
2022-12-11T19:27:50.374Z,98041.96
2022-12-11T19:30:19.125Z,98040.04
2022-12-11T19:32:48.424Z,98033.23
2022-12-11T19:35:18.398Z,98034.02
2022-12-11T19:37:46.716Z,98036.45
2022-12-11T19:40:16.057Z,98043.35
2022-12-11T19:42:44.962Z,98044.39
2022-12-11T19:45:13.875Z,98034.33
2022-12-11T19:47:42.893Z,98012.27
2022-12-11T19:50:11.582Z,98041.56
2022-12-11T19:52:45.935Z,98022.33
2022-12-11T19:55:15.404Z,98013.86
2022-12-11T19:57:44.190Z,98032.91
2022-12-11T20:00:14.238Z,98057.60
2022-12-11T20:02:43.649Z,98067.98
2022-12-11T20:05:13.404Z,98061.27
2022-12-11T20:07:44.769Z,98069.41
2022-12-11T20:10:13.760Z,98083.77
2022-12-11T20:12:42.550Z,98099.27
2022-12-11T20:15:11.782Z,98101.15
2022-12-11T20:17:44.843Z,98102.25
2022-12-11T20:20:13.666Z,98121.70
2022-12-11T20:22:42.243Z,98134.98
2022-12-11T20:25:11.344Z,98140.59
2022-12-11T20:27:40.089Z,98145.95
2022-12-11T20:30:11.399Z,98154.65
2022-12-11T20:32:40.439Z,98157.44
2022-12-11T20:35:10.549Z,98151.10
2022-12-11T20:37:39.442Z,98148.52
2022-12-11T20:40:09.145Z,98149.89
2022-12-11T20:42:37.733Z,98156.05
2022-12-11T20:45:07.907Z,98155.00
2022-12-11T20:47:36.748Z,98133.92
2022-12-11T20:50:06.116Z,98139.10
2022-12-11T20:52:35.545Z,98135.67
2022-12-11T20:55:05.364Z,98141.36
2022-12-11T20:57:34.182Z,98139.62
2022-12-11T21:00:04.067Z,98133.23
2022-12-11T21:02:32.804Z,98134.05
2022-12-11T21:05:03.470Z,98128.35
2022-12-11T21:07:31.997Z,98122.09
2022-12-11T21:10:00.853Z,98104.41
2022-12-11T21:12:31.713Z,98096.32
2022-12-11T21:15:00.685Z,98095.58
2022-12-11T21:17:29.162Z,98091.71
2022-12-11T21:19:58.189Z,98087.42
2022-12-11T21:22:26.735Z,98087.46
2022-12-11T21:24:55.421Z,98071.02
2022-12-11T21:27:24.864Z,98074.52
2022-12-11T21:29:53.510Z,98078.95
2022-12-11T21:32:23.593Z,98071.30
2022-12-11T21:34:52.315Z,98072.54
2022-12-11T21:37:21.204Z,98083.34
2022-12-11T21:39:50.197Z,98093.28
2022-12-11T21:42:18.781Z,98099.80
2022-12-11T21:47:36.437Z,98100.36
2022-12-11T21:50:05.835Z,98104.94
2022-12-11T21:52:34.414Z,98108.44
2022-12-11T21:55:03.849Z,98110.73
2022-12-11T21:57:32.913Z,98111.20
2022-12-11T22:00:01.494Z,98108.67
2022-12-11T22:02:30.224Z,98114.06
2022-12-11T22:05:02.139Z,98121.34
2022-12-11T22:07:30.659Z,98117.52
2022-12-11T22:09:59.310Z,98119.14
2022-12-11T22:12:30.002Z,98132.78
2022-12-11T22:14:58.601Z,98143.77
2022-12-11T22:17:27.308Z,98153.88
2022-12-11T22:19:57.328Z,98170.66
2022-12-11T22:22:25.912Z,98186.16
2022-12-11T22:24:54.492Z,98191.48
2022-12-11T22:27:23.974Z,98185.39
2022-12-11T22:29:52.995Z,98176.49
2022-12-11T22:32:21.675Z,98178.02
2022-12-11T22:34:50.365Z,98183.34
2022-12-11T22:37:18.944Z,98195.30
2022-12-11T22:39:47.765Z,98199.46
2022-12-11T22:42:16.963Z,98211.84
2022-12-11T22:44:45.555Z,98212.63
2022-12-11T22:47:14.301Z,98208.91
2022-12-11T22:49:42.985Z,98216.81
2022-12-11T22:52:12.079Z,98219.88
2022-12-11T22:54:42.457Z,98223.70
2022-12-11T22:57:11.192Z,98220.07
2022-12-11T22:59:39.787Z,98226.11
2022-12-11T23:02:08.519Z,98228.79
2022-12-11T23:04:37.146Z,98225.80
2022-12-11T23:07:06.174Z,98225.16
2022-12-11T23:09:35.133Z,98214.58
2022-12-11T23:12:03.920Z,98204.17
2022-12-11T23:14:32.502Z,98198.54
2022-12-11T23:17:01.151Z,98198.37
2022-12-11T23:19:29.877Z,98202.84
2022-12-11T23:21:58.560Z,98206.39
2022-12-11T23:24:27.350Z,98204.98
2022-12-11T23:26:55.841Z,98209.49
2022-12-11T23:29:24.553Z,98217.73
2022-12-11T23:31:53.199Z,98216.09
2022-12-11T23:34:21.917Z,98214.98
2022-12-11T23:36:50.375Z,98224.48
2022-12-11T23:39:19.462Z,98230.41
2022-12-11T23:41:48.052Z,98237.44
2022-12-11T23:44:18.270Z,98247.55
2022-12-11T23:46:46.753Z,98250.13
2022-12-11T23:49:15.431Z,98258.09
2022-12-11T23:51:44.219Z,98263.20
2022-12-11T23:54:13.007Z,98268.02
2022-12-11T23:56:41.693Z,98273.17
2022-12-11T23:59:13.453Z,98271.12
